sensor_id;sensor_type;location;lat;lon;timestamp;temperature;humidity
14357;DHT22;7262;48.764;9.166;2023-02-01T00:00:24;4.50;99.90
14357;DHT22;7262;48.764;9.166;2023-02-01T00:02:51;4.40;99.90
14357;DHT22;7262;48.764;9.166;2023-02-01T00:05:18;4.40;99.90
14357;DHT22;7262;48.764;9.166;2023-02-01T00:07:47;4.40;99.90
14357;DHT22;7262;48.764;9.166;2023-02-01T00:10:14;4.40;99.90
14357;DHT22;7262;48.764;9.166;2023-02-01T00:12:42;4.40;99.90
14357;DHT22;7262;48.764;9.166;2023-02-01T00:15:09;4.40;99.90
14357;DHT22;7262;48.764;9.166;2023-02-01T00:17:36;4.40;99.90
14357;DHT22;7262;48.764;9.166;2023-02-01T00:20:04;4.40;99.90
14357;DHT22;7262;48.764;9.166;2023-02-01T00:22:31;4.40;99.90
14357;DHT22;7262;48.764;9.166;2023-02-01T00:24:57;4.40;99.90
14357;DHT22;7262;48.764;9.166;2023-02-01T00:27:24;4.40;99.90
14357;DHT22;7262;48.764;9.166;2023-02-01T00:29:53;4.40;99.90
14357;DHT22;7262;48.764;9.166;2023-02-01T00:32:20;4.40;99.90
14357;DHT22;7262;48.764;9.166;2023-02-01T00:34:47;4.40;99.90
14357;DHT22;7262;48.764;9.166;2023-02-01T00:37:14;4.40;99.90
14357;DHT22;7262;48.764;9.166;2023-02-01T00:39:41;4.40;99.90
14357;DHT22;7262;48.764;9.166;2023-02-01T00:42:08;4.50;99.90
14357;DHT22;7262;48.764;9.166;2023-02-01T00:44:35;4.40;99.90
14357;DHT22;7262;48.764;9.166;2023-02-01T00:47:03;4.50;99.90
14357;DHT22;7262;48.764;9.166;2023-02-01T00:49:30;4.40;99.90
14357;DHT22;7262;48.764;9.166;2023-02-01T00:51:57;4.40;99.90
14357;DHT22;7262;48.764;9.166;2023-02-01T00:54:25;4.40;99.90
14357;DHT22;7262;48.764;9.166;2023-02-01T00:56:51;4.40;99.90
14357;DHT22;7262;48.764;9.166;2023-02-01T00:59:18;4.40;99.90
14357;DHT22;7262;48.764;9.166;2023-02-01T01:01:45;4.40;99.90
14357;DHT22;7262;48.764;9.166;2023-02-01T01:04:13;4.50;99.90
14357;DHT22;7262;48.764;9.166;2023-02-01T01:06:40;4.50;99.90
14357;DHT22;7262;48.764;9.166;2023-02-01T01:09:07;4.40;99.90
14357;DHT22;7262;48.764;9.166;2023-02-01T01:11:34;4.50;99.90
14357;DHT22;7262;48.764;9.166;2023-02-01T01:14:06;4.50;99.90
14357;DHT22;7262;48.764;9.166;2023-02-01T01:16:33;4.50;99.90
14357;DHT22;7262;48.764;9.166;2023-02-01T01:19:00;4.50;99.90
14357;DHT22;7262;48.764;9.166;2023-02-01T01:21:29;4.50;99.90
14357;DHT22;7262;48.764;9.166;2023-02-01T01:23:56;4.50;99.90
14357;DHT22;7262;48.764;9.166;2023-02-01T01:26:24;4.50;99.90
14357;DHT22;7262;48.764;9.166;2023-02-01T01:28:51;4.50;99.90
14357;DHT22;7262;48.764;9.166;2023-02-01T01:31:18;4.50;99.90
14357;DHT22;7262;48.764;9.166;2023-02-01T01:33:47;4.50;99.90
14357;DHT22;7262;48.764;9.166;2023-02-01T01:36:14;4.50;99.90
14357;DHT22;7262;48.764;9.166;2023-02-01T01:38:42;4.50;99.90
14357;DHT22;7262;48.764;9.166;2023-02-01T01:41:11;4.60;99.90
14357;DHT22;7262;48.764;9.166;2023-02-01T01:43:52;4.50;99.90
14357;DHT22;7262;48.764;9.166;2023-02-01T01:46:20;4.50;99.90
14357;DHT22;7262;48.764;9.166;2023-02-01T01:48:48;4.60;99.90
14357;DHT22;7262;48.764;9.166;2023-02-01T01:51:15;4.60;99.90
14357;DHT22;7262;48.764;9.166;2023-02-01T01:53:46;4.60;99.90
14357;DHT22;7262;48.764;9.166;2023-02-01T01:56:14;4.60;99.90
14357;DHT22;7262;48.764;9.166;2023-02-01T01:58:41;4.50;99.90
14357;DHT22;7262;48.764;9.166;2023-02-01T02:01:08;4.60;99.90
14357;DHT22;7262;48.764;9.166;2023-02-01T02:03:36;4.60;99.90
14357;DHT22;7262;48.764;9.166;2023-02-01T02:06:12;4.60;99.90
14357;DHT22;7262;48.764;9.166;2023-02-01T02:08:42;4.60;99.90
14357;DHT22;7262;48.764;9.166;2023-02-01T02:11:11;4.60;99.90
14357;DHT22;7262;48.764;9.166;2023-02-01T02:13:39;4.60;99.90
14357;DHT22;7262;48.764;9.166;2023-02-01T02:16:17;4.60;99.90
14357;DHT22;7262;48.764;9.166;2023-02-01T02:18:50;4.60;99.90
14357;DHT22;7262;48.764;9.166;2023-02-01T02:21:23;4.60;99.90
14357;DHT22;7262;48.764;9.166;2023-02-01T02:24:03;4.60;99.90
14357;DHT22;7262;48.764;9.166;2023-02-01T02:26:36;4.60;99.90
14357;DHT22;7262;48.764;9.166;2023-02-01T02:29:28;4.60;99.90
14357;DHT22;7262;48.764;9.166;2023-02-01T02:32:08;4.70;99.90
14357;DHT22;7262;48.764;9.166;2023-02-01T02:34:42;4.70;99.90
14357;DHT22;7262;48.764;9.166;2023-02-01T02:37:14;4.60;99.90
14357;DHT22;7262;48.764;9.166;2023-02-01T02:39:44;4.60;99.90
14357;DHT22;7262;48.764;9.166;2023-02-01T02:42:17;4.70;99.90
14357;DHT22;7262;48.764;9.166;2023-02-01T02:45:14;4.70;99.90
14357;DHT22;7262;48.764;9.166;2023-02-01T02:48:02;4.70;99.90
14357;DHT22;7262;48.764;9.166;2023-02-01T02:50:34;4.70;99.90
14357;DHT22;7262;48.764;9.166;2023-02-01T02:53:21;4.70;99.90
14357;DHT22;7262;48.764;9.166;2023-02-01T02:56:07;4.70;99.90
14357;DHT22;7262;48.764;9.166;2023-02-01T02:58:53;4.70;99.90
14357;DHT22;7262;48.764;9.166;2023-02-01T03:01:38;4.60;99.90
14357;DHT22;7262;48.764;9.166;2023-02-01T03:04:24;4.60;99.90
14357;DHT22;7262;48.764;9.166;2023-02-01T03:06:53;4.60;99.90
14357;DHT22;7262;48.764;9.166;2023-02-01T03:09:21;4.50;99.90
14357;DHT22;7262;48.764;9.166;2023-02-01T03:11:49;4.40;99.90
14357;DHT22;7262;48.764;9.166;2023-02-01T03:14:37;4.40;99.90
14357;DHT22;7262;48.764;9.166;2023-02-01T03:17:05;4.40;99.90
14357;DHT22;7262;48.764;9.166;2023-02-01T03:19:35;4.40;99.90
14357;DHT22;7262;48.764;9.166;2023-02-01T03:22:05;4.40;99.90
14357;DHT22;7262;48.764;9.166;2023-02-01T03:24:34;4.40;99.90
14357;DHT22;7262;48.764;9.166;2023-02-01T03:27:04;4.50;99.90
14357;DHT22;7262;48.764;9.166;2023-02-01T03:29:35;4.50;99.90
14357;DHT22;7262;48.764;9.166;2023-02-01T03:32:04;4.50;99.90
14357;DHT22;7262;48.764;9.166;2023-02-01T03:34:39;4.50;99.90
14357;DHT22;7262;48.764;9.166;2023-02-01T03:37:08;4.50;99.90
14357;DHT22;7262;48.764;9.166;2023-02-01T03:39:38;4.40;99.90
14357;DHT22;7262;48.764;9.166;2023-02-01T03:42:07;4.40;99.90
14357;DHT22;7262;48.764;9.166;2023-02-01T03:44:40;4.50;99.90
14357;DHT22;7262;48.764;9.166;2023-02-01T03:47:10;4.50;99.90
14357;DHT22;7262;48.764;9.166;2023-02-01T03:49:39;4.50;99.90
14357;DHT22;7262;48.764;9.166;2023-02-01T03:52:09;4.50;99.90
14357;DHT22;7262;48.764;9.166;2023-02-01T03:54:41;4.50;99.90
14357;DHT22;7262;48.764;9.166;2023-02-01T03:57:09;4.60;99.90
14357;DHT22;7262;48.764;9.166;2023-02-01T03:59:38;4.60;99.90
14357;DHT22;7262;48.764;9.166;2023-02-01T04:02:05;4.60;99.90
14357;DHT22;7262;48.764;9.166;2023-02-01T04:04:31;4.60;99.90
14357;DHT22;7262;48.764;9.166;2023-02-01T04:07:00;4.60;99.90
14357;DHT22;7262;48.764;9.166;2023-02-01T04:09:28;4.70;99.90
14357;DHT22;7262;48.764;9.166;2023-02-01T04:11:55;4.70;99.90
14357;DHT22;7262;48.764;9.166;2023-02-01T04:14:22;4.70;99.90
14357;DHT22;7262;48.764;9.166;2023-02-01T04:16:49;4.60;99.90
14357;DHT22;7262;48.764;9.166;2023-02-01T04:19:15;4.60;99.90
14357;DHT22;7262;48.764;9.166;2023-02-01T04:21:42;4.60;99.90
14357;DHT22;7262;48.764;9.166;2023-02-01T04:24:09;4.70;99.90
14357;DHT22;7262;48.764;9.166;2023-02-01T04:26:37;4.70;99.90
14357;DHT22;7262;48.764;9.166;2023-02-01T04:29:05;4.70;99.90
14357;DHT22;7262;48.764;9.166;2023-02-01T04:31:31;4.70;99.90
14357;DHT22;7262;48.764;9.166;2023-02-01T04:33:59;4.70;99.90
14357;DHT22;7262;48.764;9.166;2023-02-01T04:36:25;4.70;99.90
14357;DHT22;7262;48.764;9.166;2023-02-01T04:38:52;4.70;99.90
14357;DHT22;7262;48.764;9.166;2023-02-01T04:41:19;4.70;99.90
14357;DHT22;7262;48.764;9.166;2023-02-01T04:43:49;4.70;99.90
14357;DHT22;7262;48.764;9.166;2023-02-01T04:46:17;4.70;99.90
14357;DHT22;7262;48.764;9.166;2023-02-01T04:48:44;4.70;99.90
14357;DHT22;7262;48.764;9.166;2023-02-01T04:51:11;4.80;99.90
14357;DHT22;7262;48.764;9.166;2023-02-01T04:53:38;4.80;99.90
14357;DHT22;7262;48.764;9.166;2023-02-01T04:56:05;4.80;99.90
14357;DHT22;7262;48.764;9.166;2023-02-01T04:58:32;4.80;99.90
14357;DHT22;7262;48.764;9.166;2023-02-01T05:01:01;4.80;99.90
14357;DHT22;7262;48.764;9.166;2023-02-01T05:03:29;4.80;99.90
14357;DHT22;7262;48.764;9.166;2023-02-01T05:05:56;4.80;99.90
14357;DHT22;7262;48.764;9.166;2023-02-01T05:08:25;4.80;99.90
14357;DHT22;7262;48.764;9.166;2023-02-01T05:10:52;4.80;99.90
14357;DHT22;7262;48.764;9.166;2023-02-01T05:13:19;4.70;99.90
14357;DHT22;7262;48.764;9.166;2023-02-01T05:16:05;4.80;99.90
14357;DHT22;7262;48.764;9.166;2023-02-01T05:18:31;4.80;99.90
14357;DHT22;7262;48.764;9.166;2023-02-01T05:20:58;4.90;99.90
14357;DHT22;7262;48.764;9.166;2023-02-01T05:23:25;4.90;99.90
14357;DHT22;7262;48.764;9.166;2023-02-01T05:25:52;4.90;99.90
14357;DHT22;7262;48.764;9.166;2023-02-01T05:28:19;4.90;99.90
14357;DHT22;7262;48.764;9.166;2023-02-01T05:30:46;5.00;99.90
14357;DHT22;7262;48.764;9.166;2023-02-01T05:33:14;5.00;99.90
14357;DHT22;7262;48.764;9.166;2023-02-01T05:35:40;5.00;99.90
14357;DHT22;7262;48.764;9.166;2023-02-01T05:38:07;5.00;99.90
14357;DHT22;7262;48.764;9.166;2023-02-01T05:40:34;5.00;99.90
14357;DHT22;7262;48.764;9.166;2023-02-01T05:43:01;5.00;99.90
14357;DHT22;7262;48.764;9.166;2023-02-01T05:45:28;5.00;99.90
14357;DHT22;7262;48.764;9.166;2023-02-01T05:47:54;5.00;99.90
14357;DHT22;7262;48.764;9.166;2023-02-01T05:50:22;5.00;99.90
14357;DHT22;7262;48.764;9.166;2023-02-01T05:52:49;5.00;99.90
14357;DHT22;7262;48.764;9.166;2023-02-01T05:55:16;5.00;99.90
14357;DHT22;7262;48.764;9.166;2023-02-01T05:57:43;4.90;99.90
14357;DHT22;7262;48.764;9.166;2023-02-01T06:00:10;4.90;99.90
14357;DHT22;7262;48.764;9.166;2023-02-01T06:02:37;4.80;99.90
14357;DHT22;7262;48.764;9.166;2023-02-01T06:05:04;4.70;99.90
14357;DHT22;7262;48.764;9.166;2023-02-01T06:07:34;4.60;99.90
14357;DHT22;7262;48.764;9.166;2023-02-01T06:10:01;4.80;99.90
14357;DHT22;7262;48.764;9.166;2023-02-01T06:12:27;4.50;99.90
14357;DHT22;7262;48.764;9.166;2023-02-01T06:14:55;4.50;99.90
14357;DHT22;7262;48.764;9.166;2023-02-01T06:17:24;4.50;99.90
14357;DHT22;7262;48.764;9.166;2023-02-01T06:19:51;4.50;99.90
14357;DHT22;7262;48.764;9.166;2023-02-01T06:22:20;4.40;99.90
14357;DHT22;7262;48.764;9.166;2023-02-01T06:24:49;4.50;99.90
14357;DHT22;7262;48.764;9.166;2023-02-01T06:27:16;4.60;99.90
14357;DHT22;7262;48.764;9.166;2023-02-01T06:29:42;4.50;99.90
14357;DHT22;7262;48.764;9.166;2023-02-01T06:32:10;4.50;99.90
14357;DHT22;7262;48.764;9.166;2023-02-01T06:34:36;4.50;99.90
14357;DHT22;7262;48.764;9.166;2023-02-01T06:37:04;4.50;99.90
14357;DHT22;7262;48.764;9.166;2023-02-01T06:39:32;4.50;99.90
14357;DHT22;7262;48.764;9.166;2023-02-01T06:42:01;4.50;99.90
14357;DHT22;7262;48.764;9.166;2023-02-01T06:44:28;4.50;99.90
14357;DHT22;7262;48.764;9.166;2023-02-01T06:46:55;4.60;99.90
14357;DHT22;7262;48.764;9.166;2023-02-01T06:49:21;4.60;99.90
14357;DHT22;7262;48.764;9.166;2023-02-01T06:51:50;4.70;99.90
14357;DHT22;7262;48.764;9.166;2023-02-01T06:54:16;4.80;99.90
14357;DHT22;7262;48.764;9.166;2023-02-01T06:56:48;4.80;99.90
14357;DHT22;7262;48.764;9.166;2023-02-01T06:59:16;4.90;99.90
14357;DHT22;7262;48.764;9.166;2023-02-01T07:01:44;4.90;99.90
14357;DHT22;7262;48.764;9.166;2023-02-01T07:04:11;5.00;99.90
14357;DHT22;7262;48.764;9.166;2023-02-01T07:06:38;5.10;99.90
14357;DHT22;7262;48.764;9.166;2023-02-01T07:09:06;5.10;99.90
14357;DHT22;7262;48.764;9.166;2023-02-01T07:11:34;5.10;99.90
14357;DHT22;7262;48.764;9.166;2023-02-01T07:14:02;5.10;99.90
14357;DHT22;7262;48.764;9.166;2023-02-01T07:16:31;5.10;99.90
14357;DHT22;7262;48.764;9.166;2023-02-01T07:18:58;5.10;99.90
14357;DHT22;7262;48.764;9.166;2023-02-01T07:21:25;5.20;99.90
14357;DHT22;7262;48.764;9.166;2023-02-01T07:23:53;5.20;99.90
14357;DHT22;7262;48.764;9.166;2023-02-01T07:26:20;5.20;99.90
14357;DHT22;7262;48.764;9.166;2023-02-01T07:28:47;5.20;99.90
14357;DHT22;7262;48.764;9.166;2023-02-01T07:31:15;5.20;99.90
14357;DHT22;7262;48.764;9.166;2023-02-01T07:33:45;5.30;99.90
14357;DHT22;7262;48.764;9.166;2023-02-01T07:36:12;5.10;99.90
14357;DHT22;7262;48.764;9.166;2023-02-01T07:38:40;5.30;99.90
14357;DHT22;7262;48.764;9.166;2023-02-01T07:41:06;5.20;99.90
14357;DHT22;7262;48.764;9.166;2023-02-01T07:43:36;5.30;99.90
14357;DHT22;7262;48.764;9.166;2023-02-01T07:46:04;5.30;99.90
14357;DHT22;7262;48.764;9.166;2023-02-01T07:48:31;5.30;99.90
14357;DHT22;7262;48.764;9.166;2023-02-01T07:51:00;5.30;99.90
14357;DHT22;7262;48.764;9.166;2023-02-01T07:53:28;5.40;99.90
14357;DHT22;7262;48.764;9.166;2023-02-01T07:55:55;5.40;99.90
14357;DHT22;7262;48.764;9.166;2023-02-01T07:58:22;5.60;99.90
14357;DHT22;7262;48.764;9.166;2023-02-01T08:00:51;5.50;99.90
14357;DHT22;7262;48.764;9.166;2023-02-01T08:03:35;5.60;99.90
14357;DHT22;7262;48.764;9.166;2023-02-01T08:06:04;5.60;99.90
14357;DHT22;7262;48.764;9.166;2023-02-01T08:08:31;5.60;99.90
14357;DHT22;7262;48.764;9.166;2023-02-01T08:10:59;5.60;99.90
14357;DHT22;7262;48.764;9.166;2023-02-01T08:13:26;5.60;99.90
14357;DHT22;7262;48.764;9.166;2023-02-01T08:15:57;5.70;99.90
14357;DHT22;7262;48.764;9.166;2023-02-01T08:18:25;5.70;99.90
14357;DHT22;7262;48.764;9.166;2023-02-01T08:20:52;5.70;99.90
14357;DHT22;7262;48.764;9.166;2023-02-01T08:23:20;5.70;99.90
14357;DHT22;7262;48.764;9.166;2023-02-01T08:25:50;5.70;99.90
14357;DHT22;7262;48.764;9.166;2023-02-01T08:28:16;5.70;99.90
14357;DHT22;7262;48.764;9.166;2023-02-01T08:30:43;5.80;99.90
14357;DHT22;7262;48.764;9.166;2023-02-01T08:33:10;5.70;99.90
14357;DHT22;7262;48.764;9.166;2023-02-01T08:35:38;5.70;99.90
14357;DHT22;7262;48.764;9.166;2023-02-01T08:38:05;5.80;99.90
14357;DHT22;7262;48.764;9.166;2023-02-01T08:40:33;6.00;99.90
14357;DHT22;7262;48.764;9.166;2023-02-01T08:43:00;6.00;99.90
14357;DHT22;7262;48.764;9.166;2023-02-01T08:45:27;6.00;99.90
14357;DHT22;7262;48.764;9.166;2023-02-01T08:47:56;6.00;99.90
14357;DHT22;7262;48.764;9.166;2023-02-01T08:50:23;6.30;99.90
14357;DHT22;7262;48.764;9.166;2023-02-01T08:52:50;6.30;99.90
14357;DHT22;7262;48.764;9.166;2023-02-01T08:55:17;6.30;99.90
14357;DHT22;7262;48.764;9.166;2023-02-01T08:57:45;6.40;99.90
14357;DHT22;7262;48.764;9.166;2023-02-01T09:00:13;6.40;99.90
14357;DHT22;7262;48.764;9.166;2023-02-01T09:02:41;6.40;99.90
14357;DHT22;7262;48.764;9.166;2023-02-01T09:05:08;6.30;99.90
14357;DHT22;7262;48.764;9.166;2023-02-01T09:07:36;6.30;99.90
14357;DHT22;7262;48.764;9.166;2023-02-01T09:10:03;6.30;99.90
14357;DHT22;7262;48.764;9.166;2023-02-01T09:12:31;6.30;99.90
14357;DHT22;7262;48.764;9.166;2023-02-01T09:14:59;6.30;99.90
14357;DHT22;7262;48.764;9.166;2023-02-01T09:17:26;6.30;99.90
14357;DHT22;7262;48.764;9.166;2023-02-01T09:19:53;6.40;99.90
14357;DHT22;7262;48.764;9.166;2023-02-01T09:22:20;6.30;99.90
14357;DHT22;7262;48.764;9.166;2023-02-01T09:24:47;6.40;99.90
14357;DHT22;7262;48.764;9.166;2023-02-01T09:27:16;6.30;99.90
14357;DHT22;7262;48.764;9.166;2023-02-01T09:29:43;6.30;99.90
14357;DHT22;7262;48.764;9.166;2023-02-01T09:32:12;6.40;99.90
14357;DHT22;7262;48.764;9.166;2023-02-01T09:34:38;6.40;99.90
14357;DHT22;7262;48.764;9.166;2023-02-01T09:37:06;6.40;99.90
14357;DHT22;7262;48.764;9.166;2023-02-01T09:39:33;6.40;99.90
14357;DHT22;7262;48.764;9.166;2023-02-01T09:42:03;6.70;99.90
14357;DHT22;7262;48.764;9.166;2023-02-01T09:44:42;6.90;99.90
14357;DHT22;7262;48.764;9.166;2023-02-01T09:47:17;7.10;99.90
14357;DHT22;7262;48.764;9.166;2023-02-01T09:49:48;7.20;99.90
14357;DHT22;7262;48.764;9.166;2023-02-01T09:52:16;7.30;99.90
14357;DHT22;7262;48.764;9.166;2023-02-01T09:54:46;7.40;99.90
14357;DHT22;7262;48.764;9.166;2023-02-01T09:57:18;7.50;99.90
14357;DHT22;7262;48.764;9.166;2023-02-01T09:59:49;7.60;99.90
14357;DHT22;7262;48.764;9.166;2023-02-01T10:02:20;7.60;99.90
14357;DHT22;7262;48.764;9.166;2023-02-01T10:04:49;7.60;99.90
14357;DHT22;7262;48.764;9.166;2023-02-01T10:07:21;7.40;99.90
14357;DHT22;7262;48.764;9.166;2023-02-01T10:09:55;7.50;99.90
14357;DHT22;7262;48.764;9.166;2023-02-01T10:12:41;7.50;99.90
14357;DHT22;7262;48.764;9.166;2023-02-01T10:15:15;7.50;99.90
14357;DHT22;7262;48.764;9.166;2023-02-01T10:17:48;7.30;99.90
14357;DHT22;7262;48.764;9.166;2023-02-01T10:20:16;7.40;99.90
14357;DHT22;7262;48.764;9.166;2023-02-01T10:22:46;7.30;99.90
14357;DHT22;7262;48.764;9.166;2023-02-01T10:25:14;7.30;99.90
14357;DHT22;7262;48.764;9.166;2023-02-01T10:27:45;7.40;99.90
14357;DHT22;7262;48.764;9.166;2023-02-01T10:30:15;7.40;99.90
14357;DHT22;7262;48.764;9.166;2023-02-01T10:32:43;7.50;99.90
14357;DHT22;7262;48.764;9.166;2023-02-01T10:35:16;7.50;99.90
14357;DHT22;7262;48.764;9.166;2023-02-01T10:37:45;7.60;99.90
14357;DHT22;7262;48.764;9.166;2023-02-01T10:40:16;7.70;99.90
14357;DHT22;7262;48.764;9.166;2023-02-01T10:42:43;7.60;99.90
14357;DHT22;7262;48.764;9.166;2023-02-01T10:45:13;7.60;99.90
14357;DHT22;7262;48.764;9.166;2023-02-01T10:47:41;7.60;99.90
14357;DHT22;7262;48.764;9.166;2023-02-01T10:50:15;7.60;99.90
14357;DHT22;7262;48.764;9.166;2023-02-01T10:52:43;7.60;99.90
14357;DHT22;7262;48.764;9.166;2023-02-01T10:57:57;7.80;99.90
14357;DHT22;7262;48.764;9.166;2023-02-01T11:00:26;7.70;99.90
14357;DHT22;7262;48.764;9.166;2023-02-01T11:02:53;7.60;99.90
14357;DHT22;7262;48.764;9.166;2023-02-01T11:05:22;7.60;99.90
14357;DHT22;7262;48.764;9.166;2023-02-01T11:07:53;7.60;99.90
14357;DHT22;7262;48.764;9.166;2023-02-01T11:10:36;7.30;99.90
14357;DHT22;7262;48.764;9.166;2023-02-01T11:13:03;7.50;99.90
14357;DHT22;7262;48.764;9.166;2023-02-01T11:15:30;7.50;99.90
14357;DHT22;7262;48.764;9.166;2023-02-01T11:17:57;7.60;99.90
14357;DHT22;7262;48.764;9.166;2023-02-01T11:20:38;7.70;99.90
14357;DHT22;7262;48.764;9.166;2023-02-01T11:23:12;7.70;99.90
14357;DHT22;7262;48.764;9.166;2023-02-01T11:25:47;7.80;99.90
14357;DHT22;7262;48.764;9.166;2023-02-01T11:28:17;7.70;99.90
14357;DHT22;7262;48.764;9.166;2023-02-01T11:30:46;7.60;99.90
14357;DHT22;7262;48.764;9.166;2023-02-01T11:33:15;7.60;99.90
14357;DHT22;7262;48.764;9.166;2023-02-01T11:35:44;7.70;99.90
14357;DHT22;7262;48.764;9.166;2023-02-01T11:38:12;7.70;99.90
14357;DHT22;7262;48.764;9.166;2023-02-01T11:40:40;7.80;99.90
14357;DHT22;7262;48.764;9.166;2023-02-01T11:43:08;7.80;99.90
14357;DHT22;7262;48.764;9.166;2023-02-01T11:45:36;7.70;99.90
14357;DHT22;7262;48.764;9.166;2023-02-01T11:48:07;7.70;99.90
14357;DHT22;7262;48.764;9.166;2023-02-01T11:50:35;7.60;99.90
14357;DHT22;7262;48.764;9.166;2023-02-01T11:53:12;7.50;99.90
14357;DHT22;7262;48.764;9.166;2023-02-01T11:55:50;7.60;99.90
14357;DHT22;7262;48.764;9.166;2023-02-01T11:58:32;7.80;99.90
14357;DHT22;7262;48.764;9.166;2023-02-01T12:01:06;8.10;99.90
14357;DHT22;7262;48.764;9.166;2023-02-01T12:03:41;8.20;99.90
14357;DHT22;7262;48.764;9.166;2023-02-01T12:06:15;8.20;99.90
14357;DHT22;7262;48.764;9.166;2023-02-01T12:08:55;8.10;99.90
14357;DHT22;7262;48.764;9.166;2023-02-01T12:11:33;8.00;99.90
14357;DHT22;7262;48.764;9.166;2023-02-01T12:14:06;7.80;99.90
14357;DHT22;7262;48.764;9.166;2023-02-01T12:16:37;7.60;99.90
14357;DHT22;7262;48.764;9.166;2023-02-01T12:19:11;7.60;99.90
14357;DHT22;7262;48.764;9.166;2023-02-01T12:27:17;7.70;99.90
14357;DHT22;7262;48.764;9.166;2023-02-01T12:30:07;7.70;99.90
14357;DHT22;7262;48.764;9.166;2023-02-01T12:32:44;7.70;99.90
14357;DHT22;7262;48.764;9.166;2023-02-01T12:35:31;7.60;99.90
14357;DHT22;7262;48.764;9.166;2023-02-01T12:38:10;7.50;99.90
14357;DHT22;7262;48.764;9.166;2023-02-01T12:40:43;7.30;99.90
14357;DHT22;7262;48.764;9.166;2023-02-01T12:43:15;7.20;99.90
14357;DHT22;7262;48.764;9.166;2023-02-01T12:45:49;7.10;99.90
14357;DHT22;7262;48.764;9.166;2023-02-01T12:48:21;7.10;99.90
14357;DHT22;7262;48.764;9.166;2023-02-01T12:50:50;7.10;99.90
14357;DHT22;7262;48.764;9.166;2023-02-01T12:53:21;7.10;99.90
14357;DHT22;7262;48.764;9.166;2023-02-01T12:55:50;7.10;99.90
14357;DHT22;7262;48.764;9.166;2023-02-01T12:58:20;7.10;99.90
14357;DHT22;7262;48.764;9.166;2023-02-01T13:00:50;7.10;99.90
14357;DHT22;7262;48.764;9.166;2023-02-01T13:03:21;7.10;99.90
14357;DHT22;7262;48.764;9.166;2023-02-01T13:05:53;7.00;99.90
14357;DHT22;7262;48.764;9.166;2023-02-01T13:08:23;6.80;99.90
14357;DHT22;7262;48.764;9.166;2023-02-01T13:10:57;6.90;99.90
14357;DHT22;7262;48.764;9.166;2023-02-01T13:13:28;6.90;99.90
14357;DHT22;7262;48.764;9.166;2023-02-01T13:15:58;7.00;99.90
14357;DHT22;7262;48.764;9.166;2023-02-01T13:18:31;7.00;99.90
14357;DHT22;7262;48.764;9.166;2023-02-01T13:21:02;6.90;99.90
14357;DHT22;7262;48.764;9.166;2023-02-01T13:23:31;7.00;99.90
14357;DHT22;7262;48.764;9.166;2023-02-01T13:25:58;7.00;99.90
14357;DHT22;7262;48.764;9.166;2023-02-01T13:28:28;7.00;99.90
14357;DHT22;7262;48.764;9.166;2023-02-01T13:33:54;7.00;99.90
14357;DHT22;7262;48.764;9.166;2023-02-01T13:36:27;7.10;99.90
14357;DHT22;7262;48.764;9.166;2023-02-01T13:39:13;7.00;99.90
14357;DHT22;7262;48.764;9.166;2023-02-01T13:42:02;7.00;99.90
14357;DHT22;7262;48.764;9.166;2023-02-01T13:44:38;7.10;99.90
14357;DHT22;7262;48.764;9.166;2023-02-01T13:47:10;7.10;99.90
14357;DHT22;7262;48.764;9.166;2023-02-01T13:49:39;7.00;99.90
14357;DHT22;7262;48.764;9.166;2023-02-01T13:52:16;7.00;99.90
14357;DHT22;7262;48.764;9.166;2023-02-01T13:54:49;6.90;99.90
14357;DHT22;7262;48.764;9.166;2023-02-01T13:57:35;6.90;99.90
14357;DHT22;7262;48.764;9.166;2023-02-01T14:00:22;6.90;99.90
14357;DHT22;7262;48.764;9.166;2023-02-01T14:02:51;6.80;99.90
14357;DHT22;7262;48.764;9.166;2023-02-01T14:08:22;6.80;99.90
14357;DHT22;7262;48.764;9.166;2023-02-01T14:10:49;6.80;99.90
14357;DHT22;7262;48.764;9.166;2023-02-01T14:13:22;6.90;99.90
14357;DHT22;7262;48.764;9.166;2023-02-01T14:21:23;6.90;99.90
14357;DHT22;7262;48.764;9.166;2023-02-01T14:23:56;7.00;99.90
14357;DHT22;7262;48.764;9.166;2023-02-01T14:26:24;7.00;99.90
14357;DHT22;7262;48.764;9.166;2023-02-01T14:28:53;6.90;99.90
14357;DHT22;7262;48.764;9.166;2023-02-01T14:34:29;7.00;99.90
14357;DHT22;7262;48.764;9.166;2023-02-01T14:36:59;7.00;99.90
14357;DHT22;7262;48.764;9.166;2023-02-01T14:39:29;7.00;99.90
14357;DHT22;7262;48.764;9.166;2023-02-01T14:41:58;7.00;99.90
14357;DHT22;7262;48.764;9.166;2023-02-01T14:44:27;7.10;99.90
14357;DHT22;7262;48.764;9.166;2023-02-01T14:49:49;7.10;99.90
14357;DHT22;7262;48.764;9.166;2023-02-01T14:52:20;6.90;99.90
14357;DHT22;7262;48.764;9.166;2023-02-01T14:54:51;6.90;99.90
14357;DHT22;7262;48.764;9.166;2023-02-01T14:57:19;6.90;99.90
14357;DHT22;7262;48.764;9.166;2023-02-01T14:59:48;6.90;99.90
14357;DHT22;7262;48.764;9.166;2023-02-01T15:02:18;6.80;99.90
14357;DHT22;7262;48.764;9.166;2023-02-01T15:04:50;7.00;99.90
14357;DHT22;7262;48.764;9.166;2023-02-01T15:07:21;6.90;99.90
14357;DHT22;7262;48.764;9.166;2023-02-01T15:09:49;6.90;99.90
14357;DHT22;7262;48.764;9.166;2023-02-01T15:12:17;6.90;99.90
14357;DHT22;7262;48.764;9.166;2023-02-01T15:15:02;6.90;99.90
14357;DHT22;7262;48.764;9.166;2023-02-01T15:17:30;6.90;99.90
14357;DHT22;7262;48.764;9.166;2023-02-01T15:19:59;6.80;99.90
14357;DHT22;7262;48.764;9.166;2023-02-01T15:22:29;6.80;99.90
14357;DHT22;7262;48.764;9.166;2023-02-01T15:24:58;6.80;99.90
14357;DHT22;7262;48.764;9.166;2023-02-01T15:27:26;6.80;99.90
14357;DHT22;7262;48.764;9.166;2023-02-01T15:29:53;6.80;99.90
14357;DHT22;7262;48.764;9.166;2023-02-01T15:32:29;6.80;99.90
14357;DHT22;7262;48.764;9.166;2023-02-01T15:34:57;6.80;99.90
14357;DHT22;7262;48.764;9.166;2023-02-01T15:37:25;6.70;99.90
14357;DHT22;7262;48.764;9.166;2023-02-01T15:40:05;6.80;99.90
14357;DHT22;7262;48.764;9.166;2023-02-01T15:42:33;6.70;99.90
14357;DHT22;7262;48.764;9.166;2023-02-01T15:45:00;6.80;99.90
14357;DHT22;7262;48.764;9.166;2023-02-01T15:47:27;6.70;99.90
14357;DHT22;7262;48.764;9.166;2023-02-01T15:49:56;6.70;99.90
14357;DHT22;7262;48.764;9.166;2023-02-01T15:52:24;6.70;99.90
14357;DHT22;7262;48.764;9.166;2023-02-01T15:54:54;6.70;99.90
14357;DHT22;7262;48.764;9.166;2023-02-01T15:57:23;6.70;99.90
14357;DHT22;7262;48.764;9.166;2023-02-01T15:59:55;6.70;99.90
14357;DHT22;7262;48.764;9.166;2023-02-01T16:02:27;6.70;99.90
14357;DHT22;7262;48.764;9.166;2023-02-01T16:04:54;6.70;99.90
14357;DHT22;7262;48.764;9.166;2023-02-01T16:07:23;6.60;99.90
14357;DHT22;7262;48.764;9.166;2023-02-01T16:09:52;6.70;99.90
14357;DHT22;7262;48.764;9.166;2023-02-01T16:12:23;6.70;99.90
14357;DHT22;7262;48.764;9.166;2023-02-01T16:14:53;6.70;99.90
14357;DHT22;7262;48.764;9.166;2023-02-01T16:17:20;6.70;99.90
14357;DHT22;7262;48.764;9.166;2023-02-01T16:19:47;6.70;99.90
14357;DHT22;7262;48.764;9.166;2023-02-01T16:22:13;6.70;99.90
14357;DHT22;7262;48.764;9.166;2023-02-01T16:24:40;6.70;99.90
14357;DHT22;7262;48.764;9.166;2023-02-01T16:27:07;6.70;99.90
14357;DHT22;7262;48.764;9.166;2023-02-01T16:29:34;6.70;99.90
14357;DHT22;7262;48.764;9.166;2023-02-01T16:32:04;6.70;99.90
14357;DHT22;7262;48.764;9.166;2023-02-01T16:34:31;6.70;99.90
14357;DHT22;7262;48.764;9.166;2023-02-01T16:36:59;6.70;99.90
14357;DHT22;7262;48.764;9.166;2023-02-01T16:39:26;6.70;99.90
14357;DHT22;7262;48.764;9.166;2023-02-01T16:41:54;6.70;99.90
14357;DHT22;7262;48.764;9.166;2023-02-01T16:44:21;6.70;99.90